Wednesday, September 19, 2018, 3:14 AM GMT
Back to Local

CWKG, Kejimkujik 1, N. S.

Location: , , Canada Lat: 44.433
Local Time: 3:14 AM GMT ( 3:14 GMT) Lon: -65.2
Time Zone: GMT Elev: 416 ft

Show me the last for .
Show Coded

Time T Td Feel RH Dir Speed Gust Alt SLP Vis Weather Sky Remarks
2018-09-19 03:00 63 62 - 94 40° 5 - - 29.74 0 None
2018-09-19 02:00 64 62 - 93 40° 5 - - 29.74 0 None
2018-09-19 01:00 64 63 - 93 70° 3 - - 29.74 0 1-hr Precip Total: 0.07"
2018-09-19 00:00 65 63 - 93 70° 3 - - 29.72 0 1-hr Precip Total: 0.01"
2018-09-18 23:00 65 63 - 93 80° 3 - - 29.73 0 1-hr Precip Total: 0.04"
2018-09-18 22:00 64 63 - 98 160° 3 - - 29.74 0 1-hr Precip Total: 0.10"
2018-09-18 21:00 65 63 - 91 150° 1 - - 29.74 0 1-hr Precip Total: 0.06"
2018-09-18 20:00 66 64 - 90 280° 3 - - 29.77 0 None
2018-09-18 19:00 68 64 - 85 260° 6 - - 29.77 0 None
2018-09-18 18:00 69 64 - 86 270° 5 - - 29.79 0 None
2018-09-18 17:00 70 64 - 82 270° 8 17 - 29.79 0 None
2018-09-18 16:00 70 64 - 80 270° 6 - - 29.81 0 None
2018-09-18 15:00 69 65 - 87 270° 5 - - 29.82 0 None
2018-09-18 14:00 70 66 76 85 270° 7 - - 29.83 0 None
2018-09-18 13:00 70 65 - 85 270° 6 - - 29.83 0 None
2018-09-18 12:00 69 64 - 85 260° 7 - - 29.83 0 None
2018-09-18 11:00 67 64 - 87 270° 5 - - 29.85 0 None
2018-09-18 10:00 67 63 - 89 270° 6 - - 29.84 0 None
2018-09-18 09:00 66 63 - 90 250° 7 - - 29.84 0 None
2018-09-18 08:00 64 62 - 92 260° 6 - - 29.85 0 None
2018-09-18 07:00 63 60 - 91 240° 3 - - 29.86 0 None
2018-09-18 06:00 63 60 - 91 230° 5 - - 29.88 0 None
2018-09-18 05:00 63 60 - 91 240° 3 - - 29.90 0 None
2018-09-18 04:00 63 60 - 89 250° 5 - - 29.91 0 None

Support USWX by starting your Amazon purchase here.